createdAt,value
2019-05-17T00:02:46.606Z,88.60
2019-05-17T00:05:26.965Z,88.90
2019-05-17T00:08:07.651Z,88.90
2019-05-17T00:10:37.638Z,89.20
2019-05-17T00:13:26.746Z,89.20
2019-05-17T00:16:07.195Z,88.70
2019-05-17T00:18:47.211Z,88.80
2019-05-17T00:21:27.533Z,89.10
2019-05-17T00:24:07.279Z,89.10
2019-05-17T00:26:47.314Z,89.40
2019-05-17T00:29:27.541Z,89.40
2019-05-17T00:32:08.047Z,89.60
2019-05-17T00:34:37.740Z,89.20
2019-05-17T00:37:26.456Z,89.90
2019-05-17T00:40:07.371Z,89.80
2019-05-17T00:42:47.099Z,90.00
2019-05-17T00:45:27.182Z,90.10
2019-05-17T00:48:07.366Z,90.10
2019-05-17T00:50:53.252Z,90.10
2019-05-17T00:53:29.714Z,90.10
2019-05-17T00:56:10.521Z,90.30
2019-05-17T01:01:48.994Z,90.10
2019-05-17T01:04:29.406Z,90.40
2019-05-17T01:07:09.500Z,90.40
2019-05-17T01:09:49.779Z,90.30
2019-05-17T01:12:29.729Z,90.20
2019-05-17T01:15:09.865Z,90.50
2019-05-17T01:17:37.623Z,90.50
2019-05-17T01:20:44.082Z,90.60
2019-05-17T01:23:26.977Z,90.50
2019-05-17T01:26:07.664Z,90.60
2019-05-17T01:28:48.178Z,90.60
2019-05-17T01:31:28.349Z,90.50
2019-05-17T01:34:08.377Z,90.70
2019-05-17T01:36:48.430Z,90.60
2019-05-17T01:39:28.596Z,90.80
2019-05-17T01:42:08.541Z,90.80
2019-05-17T01:44:48.662Z,90.70
2019-05-17T01:47:28.584Z,90.50
2019-05-17T01:50:08.746Z,90.90
2019-05-17T01:52:48.857Z,90.60
2019-05-17T01:55:29.128Z,90.60
2019-05-17T01:58:08.721Z,90.70
2019-05-17T02:00:48.803Z,90.80
2019-05-17T02:03:28.758Z,90.70
2019-05-17T02:06:08.757Z,90.70
2019-05-17T02:08:49.174Z,90.70
2019-05-17T02:11:29.009Z,90.70
2019-05-17T02:14:09.142Z,90.60
2019-05-17T02:16:49.380Z,90.60
2019-05-17T02:19:29.201Z,90.70
2019-05-17T02:22:09.325Z,91.10
2019-05-17T02:24:49.686Z,90.80
2019-05-17T02:27:35.945Z,90.90
2019-05-17T02:30:14.095Z,90.80
2019-05-17T02:32:54.187Z,90.70
2019-05-17T02:35:23.087Z,90.80
2019-05-17T02:38:13.250Z,90.50
2019-05-17T02:40:53.757Z,90.20
2019-05-17T02:43:34.307Z,90.30
2019-05-17T02:46:14.442Z,90.30
2019-05-17T02:48:56.362Z,90.60
2019-05-17T02:51:43.431Z,90.80
2019-05-17T02:54:32.819Z,91.00
2019-05-17T02:57:14.247Z,91.20
2019-05-17T02:59:54.206Z,91.30
2019-05-17T03:02:27.017Z,91.20
2019-05-17T03:05:12.803Z,91.30
2019-05-17T03:08:03.652Z,91.40
2019-05-17T03:10:43.297Z,91.40
2019-05-17T03:13:23.872Z,91.40
2019-05-17T03:16:04.147Z,91.40
2019-05-17T03:18:44.128Z,91.30
2019-05-17T03:21:25.061Z,91.20
2019-05-17T03:24:05.568Z,91.10
2019-05-17T03:26:45.366Z,90.90
2019-05-17T03:29:25.675Z,90.80
2019-05-17T03:32:08.315Z,90.90
2019-05-17T03:34:48.069Z,91.10
2019-05-17T03:37:34.079Z,91.20
2019-05-17T03:40:27.557Z,91.20
2019-05-17T03:42:53.901Z,91.10
2019-05-17T03:48:46.795Z,91.50
2019-05-17T03:51:27.125Z,91.30
2019-05-17T03:53:54.800Z,91.20
2019-05-17T03:56:22.592Z,91.00
2019-05-17T03:59:12.605Z,91.10
2019-05-17T04:01:58.505Z,90.90
2019-05-17T04:04:39.016Z,91.00
2019-05-17T04:07:23.542Z,91.10
2019-05-17T04:10:04.724Z,91.30
2019-05-17T04:12:44.194Z,91.10
2019-05-17T04:15:32.840Z,91.10
2019-05-17T04:18:13.735Z,91.10
2019-05-17T04:20:54.066Z,91.00
2019-05-17T04:23:34.321Z,91.10
2019-05-17T04:26:14.483Z,90.90
2019-05-17T04:28:56.287Z,91.20
2019-05-17T04:31:36.614Z,91.20
2019-05-17T04:34:16.822Z,91.20
2019-05-17T04:36:58.289Z,91.20
2019-05-17T04:39:37.896Z,91.20
2019-05-17T04:42:18.197Z,91.40
2019-05-17T04:44:58.666Z,91.30
2019-05-17T04:47:38.610Z,91.30
2019-05-17T04:50:19.046Z,91.40
2019-05-17T04:52:58.816Z,91.30
2019-05-17T04:55:39.139Z,91.20
2019-05-17T04:58:22.980Z,91.30
2019-05-17T05:01:03.906Z,91.20
2019-05-17T05:03:43.840Z,91.30
2019-05-17T05:06:24.214Z,91.20
2019-05-17T05:09:05.309Z,91.20
2019-05-17T05:11:59.655Z,91.00
2019-05-17T05:14:15.731Z,90.90
2019-05-17T05:17:02.829Z,90.80
2019-05-17T05:19:42.710Z,90.70
2019-05-17T05:22:22.655Z,90.40
2019-05-17T05:28:13.707Z,90.80
2019-05-17T05:31:02.360Z,90.60
2019-05-17T05:33:42.565Z,90.70
2019-05-17T05:36:22.573Z,90.40
2019-05-17T05:39:04.013Z,90.40
2019-05-17T05:41:43.645Z,90.60
2019-05-17T05:44:23.881Z,90.90
2019-05-17T05:47:03.672Z,90.90
2019-05-17T05:49:43.753Z,91.10
2019-05-17T05:52:23.973Z,91.10
2019-05-17T05:55:04.090Z,91.20
2019-05-17T05:57:44.281Z,90.90
2019-05-17T06:00:24.274Z,90.60
2019-05-17T06:03:04.352Z,90.00
2019-05-17T06:05:44.942Z,88.70
2019-05-17T06:08:25.379Z,86.90
2019-05-17T06:11:05.297Z,84.60
2019-05-17T06:13:45.358Z,83.00
2019-05-17T06:16:25.650Z,82.30
2019-05-17T06:19:05.796Z,80.50
2019-05-17T06:21:48.855Z,80.20
2019-05-17T06:24:31.935Z,79.10
2019-05-17T06:27:12.503Z,78.30
2019-05-17T06:29:52.505Z,76.50
2019-05-17T06:32:32.699Z,74.30
2019-05-17T06:35:01.883Z,73.30
2019-05-17T06:37:49.173Z,72.90
2019-05-17T06:40:17.229Z,71.50
2019-05-17T06:43:04.513Z,70.40
2019-05-17T06:45:53.109Z,70.00
2019-05-17T06:48:33.687Z,67.70
2019-05-17T06:51:02.545Z,67.60
2019-05-17T06:56:38.897Z,64.40
2019-05-17T06:59:19.017Z,63.70
2019-05-17T07:01:59.778Z,61.90
2019-05-17T07:04:39.655Z,61.40
2019-05-17T07:07:26.106Z,61.10
2019-05-17T07:10:06.327Z,59.40
2019-05-17T07:12:55.974Z,58.00
2019-05-17T07:15:43.043Z,57.40
2019-05-17T07:17:59.960Z,56.80
2019-05-17T07:20:49.983Z,55.40
2019-05-17T07:23:30.283Z,55.60
2019-05-17T07:26:12.086Z,54.90
2019-05-17T07:28:51.907Z,54.20
2019-05-17T07:31:32.190Z,54.10
2019-05-17T07:34:12.333Z,53.70
2019-05-17T07:36:52.514Z,53.90
2019-05-17T07:39:32.438Z,53.90
2019-05-17T07:42:12.536Z,53.60
2019-05-17T07:44:52.705Z,52.20
2019-05-17T07:47:32.676Z,51.90
2019-05-17T07:50:12.754Z,52.30
2019-05-17T07:52:52.669Z,52.60
2019-05-17T07:55:32.726Z,51.40
2019-05-17T07:58:12.321Z,50.50
2019-05-17T08:00:52.493Z,50.00
2019-05-17T08:03:32.650Z,48.40
2019-05-17T08:06:12.874Z,48.20
2019-05-17T08:08:52.942Z,48.70
2019-05-17T08:11:32.806Z,49.40
2019-05-17T08:14:26.493Z,47.90
2019-05-17T08:16:55.242Z,48.80
2019-05-17T08:19:35.618Z,47.90
2019-05-17T08:22:15.743Z,47.70
2019-05-17T08:24:55.785Z,46.30
2019-05-17T08:27:35.861Z,47.50
2019-05-17T08:30:15.862Z,47.70
2019-05-17T08:32:55.882Z,46.80
2019-05-17T08:35:36.026Z,46.50
2019-05-17T08:38:16.221Z,45.80
2019-05-17T08:40:56.450Z,46.50
2019-05-17T08:43:42.546Z,44.00
2019-05-17T08:46:19.863Z,45.10
2019-05-17T08:49:00.387Z,43.80
2019-05-17T08:51:40.648Z,43.30
2019-05-17T08:54:20.666Z,43.10
2019-05-17T08:57:00.801Z,43.60
2019-05-17T08:59:40.964Z,44.20
2019-05-17T09:02:10.857Z,43.50
2019-05-17T09:04:57.405Z,43.10
2019-05-17T09:10:16.727Z,41.10
2019-05-17T09:12:59.534Z,44.30
2019-05-17T09:15:40.063Z,42.00
2019-05-17T09:18:20.755Z,42.70
2019-05-17T09:20:49.615Z,43.60
2019-05-17T09:23:36.610Z,42.50
2019-05-17T09:26:24.156Z,43.40
2019-05-17T09:29:11.309Z,41.40
2019-05-17T09:31:51.035Z,40.60
2019-05-17T09:34:31.081Z,41.10
2019-05-17T09:37:14.494Z,43.00
2019-05-17T09:39:40.927Z,42.70
2019-05-17T09:42:29.997Z,43.00
2019-05-17T09:44:57.507Z,43.60
2019-05-17T09:47:44.526Z,44.30
2019-05-17T09:50:31.549Z,44.50
2019-05-17T09:53:20.158Z,45.00
2019-05-17T09:56:00.853Z,43.80
2019-05-17T09:58:29.932Z,44.50
2019-05-17T10:01:19.511Z,42.90
2019-05-17T10:03:59.986Z,42.30
2019-05-17T10:06:40.136Z,44.40
2019-05-17T10:09:20.029Z,44.60
2019-05-17T10:12:00.068Z,44.70
2019-05-17T10:14:40.125Z,44.40
2019-05-17T10:17:21.175Z,42.70
2019-05-17T10:20:01.678Z,43.00
2019-05-17T10:22:41.422Z,43.60
2019-05-17T10:25:09.844Z,43.50
2019-05-17T10:27:37.565Z,42.30
2019-05-17T10:30:05.329Z,41.60
2019-05-17T10:32:33.002Z,41.60
2019-05-17T10:35:00.655Z,41.40
2019-05-17T10:37:30.265Z,41.30
2019-05-17T10:39:57.834Z,41.40
2019-05-17T10:42:25.678Z,41.70
2019-05-17T10:44:54.743Z,41.30
2019-05-17T10:47:22.556Z,39.60
2019-05-17T10:49:50.163Z,39.60
2019-05-17T10:52:20.169Z,40.80
2019-05-17T10:57:54.053Z,42.50
2019-05-17T11:00:41.579Z,43.10
2019-05-17T11:03:25.834Z,42.30
2019-05-17T11:06:05.717Z,44.50
2019-05-17T11:08:45.854Z,44.30
2019-05-17T11:11:13.484Z,43.70
2019-05-17T11:14:00.529Z,44.00
2019-05-17T11:16:47.533Z,44.50
2019-05-17T11:19:27.294Z,44.30
2019-05-17T11:22:07.429Z,42.80
2019-05-17T11:24:47.538Z,43.40
2019-05-17T11:27:27.596Z,43.30
2019-05-17T11:30:07.822Z,43.90
2019-05-17T11:32:47.975Z,41.80
2019-05-17T11:35:28.222Z,41.50
2019-05-17T11:38:08.348Z,40.50
2019-05-17T11:40:50.010Z,41.60
2019-05-17T11:43:32.624Z,41.30
2019-05-17T11:46:00.262Z,40.60
2019-05-17T11:48:47.263Z,39.20
2019-05-17T11:51:27.581Z,38.80
2019-05-17T11:54:07.777Z,38.20
2019-05-17T11:56:47.590Z,37.10
2019-05-17T11:59:27.713Z,37.00
2019-05-17T12:02:07.870Z,37.90
2019-05-17T12:04:35.476Z,38.70
2019-05-17T12:07:22.585Z,39.50
2019-05-17T12:10:03.158Z,40.40
2019-05-17T12:12:43.218Z,40.20
2019-05-17T12:15:23.487Z,41.50
2019-05-17T12:18:03.412Z,41.60
2019-05-17T12:20:43.472Z,41.20
2019-05-17T12:23:23.794Z,41.70
2019-05-17T12:26:04.039Z,41.80
2019-05-17T12:28:44.149Z,40.10
2019-05-17T12:31:24.349Z,39.50
2019-05-17T12:34:04.427Z,38.30
2019-05-17T12:36:44.450Z,37.70
2019-05-17T12:39:24.926Z,37.30
2019-05-17T12:42:05.002Z,37.60
2019-05-17T12:44:45.909Z,37.80
2019-05-17T12:47:26.295Z,38.70
2019-05-17T12:50:06.358Z,38.60
2019-05-17T12:52:46.621Z,38.80
2019-05-17T12:55:26.769Z,37.90
2019-05-17T12:58:06.790Z,38.90
2019-05-17T13:00:46.778Z,39.50
2019-05-17T13:03:27.237Z,39.40
2019-05-17T13:06:07.361Z,39.30
2019-05-17T13:08:46.961Z,39.80
2019-05-17T13:11:27.374Z,40.40
2019-05-17T13:14:07.494Z,40.40
2019-05-17T13:16:47.689Z,41.00
2019-05-17T13:19:27.977Z,41.90
2019-05-17T13:22:07.858Z,42.40
2019-05-17T13:24:48.081Z,42.70
2019-05-17T13:27:28.086Z,42.90
2019-05-17T13:30:08.243Z,42.60
2019-05-17T13:32:48.454Z,43.00
2019-05-17T13:38:26.778Z,43.10
2019-05-17T13:41:06.921Z,43.80
2019-05-17T13:43:47.096Z,44.30
2019-05-17T13:46:33.229Z,45.00
2019-05-17T13:49:09.363Z,45.10
2019-05-17T13:54:35.945Z,45.70
2019-05-17T13:57:22.966Z,45.80
2019-05-17T14:00:02.857Z,45.70
2019-05-17T14:02:43.043Z,45.80
2019-05-17T14:05:23.249Z,46.10
2019-05-17T14:08:03.329Z,46.60
2019-05-17T14:10:43.654Z,47.10
2019-05-17T14:13:23.860Z,48.20
2019-05-17T14:16:04.073Z,48.50
2019-05-17T14:18:44.150Z,49.60
2019-05-17T14:21:24.168Z,49.30
2019-05-17T14:24:04.354Z,49.20
2019-05-17T14:26:44.582Z,48.80
2019-05-17T14:29:25.433Z,49.10
2019-05-17T14:32:05.728Z,48.70
2019-05-17T14:34:46.065Z,49.00
2019-05-17T14:37:25.784Z,50.00
2019-05-17T14:40:05.763Z,49.00
2019-05-17T14:42:45.777Z,48.60
2019-05-17T14:45:13.322Z,48.50
2019-05-17T14:48:00.349Z,49.00
2019-05-17T14:50:47.410Z,49.00
2019-05-17T14:53:27.194Z,49.20
2019-05-17T14:56:07.327Z,48.70
2019-05-17T14:58:47.680Z,48.90
2019-05-17T15:01:27.715Z,48.90
2019-05-17T15:04:08.144Z,48.60
2019-05-17T15:06:48.302Z,48.60
2019-05-17T15:09:28.482Z,50.00
2019-05-17T15:12:08.321Z,50.50
2019-05-17T15:14:36.718Z,50.20
2019-05-17T15:17:23.833Z,51.50
2019-05-17T15:20:03.682Z,50.20
2019-05-17T15:22:44.914Z,50.70
2019-05-17T15:25:25.049Z,51.40
2019-05-17T15:28:05.291Z,49.60
2019-05-17T15:30:45.338Z,49.30
2019-05-17T15:33:25.578Z,47.90
2019-05-17T15:36:05.770Z,47.20
2019-05-17T15:38:45.858Z,45.00
2019-05-17T15:41:26.177Z,42.70
2019-05-17T15:44:06.347Z,42.80
2019-05-17T15:46:46.309Z,41.50
2019-05-17T15:49:26.230Z,41.60
2019-05-17T15:52:06.375Z,41.70
2019-05-17T15:54:48.569Z,40.50
2019-05-17T15:57:28.743Z,40.50
2019-05-17T16:00:08.770Z,39.60
2019-05-17T16:02:48.850Z,39.90
2019-05-17T16:05:28.878Z,41.10
2019-05-17T16:08:09.053Z,40.10
2019-05-17T16:10:49.322Z,40.70
2019-05-17T16:13:29.458Z,41.30
2019-05-17T16:16:09.279Z,41.40
2019-05-17T16:18:49.194Z,41.80
2019-05-17T16:21:29.270Z,42.10
2019-05-17T16:24:09.390Z,41.40
2019-05-17T16:26:49.571Z,40.60
2019-05-17T16:29:29.602Z,40.90
2019-05-17T16:32:09.754Z,41.40
2019-05-17T16:34:49.705Z,41.70
2019-05-17T16:37:29.878Z,42.40
2019-05-17T16:40:09.983Z,42.70
2019-05-17T16:42:49.996Z,42.70
2019-05-17T16:45:30.128Z,42.70
2019-05-17T16:48:10.298Z,42.60
2019-05-17T16:50:50.179Z,42.60
2019-05-17T16:53:30.329Z,42.60
2019-05-17T16:56:10.253Z,43.50
2019-05-17T16:58:50.236Z,43.10
2019-05-17T17:01:30.426Z,43.30
2019-05-17T17:04:10.943Z,43.10
2019-05-17T17:06:51.135Z,43.70
2019-05-17T17:09:31.258Z,43.60
2019-05-17T17:12:11.498Z,43.70
2019-05-17T17:14:51.489Z,44.40
2019-05-17T17:17:31.661Z,44.60
2019-05-17T17:20:11.894Z,45.00
2019-05-17T17:22:52.290Z,45.50
2019-05-17T17:25:32.357Z,44.50
2019-05-17T17:28:00.141Z,44.00
2019-05-17T17:30:47.146Z,43.00
2019-05-17T17:33:34.231Z,41.60
2019-05-17T17:36:14.770Z,41.90
2019-05-17T17:38:55.813Z,41.70
2019-05-17T17:47:19.633Z,41.10
2019-05-17T17:49:59.669Z,41.40
2019-05-17T17:52:39.602Z,41.30
2019-05-17T17:55:28.965Z,41.70
2019-05-17T17:58:16.017Z,42.40
2019-05-17T18:01:03.299Z,43.20
2019-05-17T18:03:53.389Z,44.20
2019-05-17T18:06:33.491Z,44.00
2019-05-17T18:09:13.541Z,43.30
2019-05-17T18:11:53.800Z,43.60
2019-05-17T18:14:34.239Z,44.00
2019-05-17T18:17:14.322Z,43.90
2019-05-17T18:19:54.605Z,44.90
2019-05-17T18:25:33.601Z,45.50
2019-05-17T18:28:13.520Z,45.30
2019-05-17T18:30:53.566Z,45.10
2019-05-17T18:33:33.777Z,45.30
2019-05-17T18:36:14.380Z,45.20
2019-05-17T18:38:54.286Z,45.70
2019-05-17T18:41:34.409Z,46.20
2019-05-17T18:44:27.045Z,46.70
2019-05-17T18:46:56.777Z,47.00
2019-05-17T18:49:36.867Z,47.10
2019-05-17T18:52:16.952Z,47.60
2019-05-17T18:54:57.037Z,47.90
2019-05-17T18:57:37.250Z,48.40
2019-05-17T19:00:17.674Z,48.60
2019-05-17T19:02:57.574Z,48.40
2019-05-17T19:05:37.644Z,49.00
2019-05-17T19:08:17.621Z,49.00
2019-05-17T19:10:57.641Z,49.20
2019-05-17T19:13:25.346Z,49.70
2019-05-17T19:16:12.442Z,50.20
2019-05-17T19:18:40.114Z,50.50
2019-05-17T19:21:29.241Z,51.10
2019-05-17T19:24:16.369Z,51.30
2019-05-17T19:26:43.937Z,51.30
2019-05-17T19:29:11.713Z,51.60
2019-05-17T19:31:58.792Z,52.10
2019-05-17T19:34:38.343Z,52.10
2019-05-17T19:37:18.343Z,52.10
2019-05-17T19:39:58.617Z,52.70
2019-05-17T19:42:38.834Z,52.60
2019-05-17T19:45:18.897Z,52.70
2019-05-17T19:47:59.078Z,53.30
2019-05-17T19:50:39.069Z,53.30
2019-05-17T19:53:19.330Z,53.60
2019-05-17T19:55:59.445Z,54.30
2019-05-17T19:58:39.673Z,54.60
2019-05-17T20:01:19.829Z,54.80
2019-05-17T20:03:59.886Z,54.30
2019-05-17T20:06:40.291Z,54.90
2019-05-17T20:09:19.974Z,55.20
2019-05-17T20:12:00.191Z,55.60
2019-05-17T20:14:42.066Z,55.60
2019-05-17T20:17:22.494Z,55.20
2019-05-17T20:20:02.954Z,55.20
2019-05-17T20:22:43.162Z,55.40
2019-05-17T20:25:11.218Z,55.40
2019-05-17T20:27:38.823Z,53.90
2019-05-17T20:30:06.769Z,53.50
2019-05-17T20:32:35.253Z,53.80
2019-05-17T20:35:02.877Z,53.90
2019-05-17T20:37:30.606Z,54.10
2019-05-17T20:39:58.217Z,57.30
2019-05-17T20:42:25.789Z,57.70
2019-05-17T20:44:53.405Z,58.70
2019-05-17T20:47:21.022Z,59.30
2019-05-17T20:49:48.865Z,59.90
2019-05-17T20:52:16.437Z,60.60
2019-05-17T20:54:44.017Z,61.50
2019-05-17T20:57:11.645Z,62.20
2019-05-17T20:59:39.245Z,62.70
2019-05-17T21:02:06.853Z,64.20
2019-05-17T21:04:34.437Z,63.60
2019-05-17T21:07:02.095Z,63.60
2019-05-17T21:09:29.798Z,64.10
2019-05-17T21:11:57.455Z,64.80
2019-05-17T21:14:25.146Z,64.50
2019-05-17T21:16:52.869Z,64.90
2019-05-17T21:19:20.489Z,65.70
2019-05-17T21:21:48.093Z,65.60
2019-05-17T21:24:15.711Z,66.10
2019-05-17T21:26:43.973Z,66.60
2019-05-17T21:29:11.601Z,67.10
2019-05-17T21:31:39.229Z,67.50
2019-05-17T21:34:06.933Z,67.40
2019-05-17T21:36:34.541Z,67.90
2019-05-17T21:39:04.352Z,68.00
2019-05-17T21:41:32.005Z,68.20
2019-05-17T21:43:59.611Z,68.60
2019-05-17T21:46:27.213Z,69.20
2019-05-17T21:48:54.841Z,69.30
2019-05-17T21:51:22.418Z,69.50
2019-05-17T21:54:09.737Z,68.90
2019-05-17T21:56:49.829Z,68.90
2019-05-17T21:59:30.278Z,69.20
2019-05-17T22:02:10.374Z,69.20
2019-05-17T22:04:50.424Z,69.50
2019-05-17T22:07:30.792Z,70.00
2019-05-17T22:10:10.664Z,70.30
2019-05-17T22:12:50.769Z,70.50
2019-05-17T22:15:31.577Z,71.00
2019-05-17T22:18:11.502Z,71.90
2019-05-17T22:20:51.744Z,71.90
2019-05-17T22:23:32.027Z,72.20
2019-05-17T22:26:12.164Z,73.00
2019-05-17T22:28:52.138Z,72.80
2019-05-17T22:31:32.583Z,73.00
2019-05-17T22:34:12.642Z,73.80
2019-05-17T22:36:53.430Z,74.10
2019-05-17T22:39:33.461Z,74.50
2019-05-17T22:42:13.321Z,74.80
2019-05-17T22:44:53.250Z,74.90
2019-05-17T22:47:33.310Z,75.20
2019-05-17T22:50:13.253Z,75.20
2019-05-17T22:52:53.346Z,75.30
2019-05-17T22:55:33.639Z,75.90
2019-05-17T22:58:13.587Z,76.20
2019-05-17T23:00:53.863Z,76.20
2019-05-17T23:03:33.876Z,76.60
2019-05-17T23:06:14.081Z,76.50
2019-05-17T23:08:54.075Z,76.90
2019-05-17T23:11:34.197Z,77.20
2019-05-17T23:14:14.169Z,77.20
2019-05-17T23:16:54.276Z,77.50
2019-05-17T23:19:34.238Z,77.80
2019-05-17T23:22:14.558Z,77.90
2019-05-17T23:24:54.874Z,78.10
2019-05-17T23:27:35.091Z,78.30
2019-05-17T23:30:15.534Z,78.40
2019-05-17T23:32:55.710Z,78.40
2019-05-17T23:35:35.917Z,78.60
2019-05-17T23:38:16.045Z,78.80
2019-05-17T23:40:43.676Z,78.90
2019-05-17T23:43:30.706Z,79.30
2019-05-17T23:46:17.725Z,79.20
2019-05-17T23:48:59.424Z,79.80
2019-05-17T23:51:39.182Z,79.60
2019-05-17T23:54:19.257Z,80.10
2019-05-17T23:56:59.339Z,80.20
2019-05-17T23:59:39.603Z,80.30
